sensor_id;sensor_type;location;lat;lon;timestamp;temperature;humidity
254;DHT22;590;48.772;8.846;2022-11-02T00:01:20;8.40;99.90
254;DHT22;590;48.772;8.846;2022-11-02T00:03:49;8.40;99.90
254;DHT22;590;48.772;8.846;2022-11-02T00:06:19;8.40;99.90
254;DHT22;590;48.772;8.846;2022-11-02T00:08:46;8.40;99.90
254;DHT22;590;48.772;8.846;2022-11-02T00:11:14;8.30;99.90
254;DHT22;590;48.772;8.846;2022-11-02T00:13:42;8.30;99.90
254;DHT22;590;48.772;8.846;2022-11-02T00:16:12;8.20;99.90
254;DHT22;590;48.772;8.846;2022-11-02T00:18:43;8.20;99.90
254;DHT22;590;48.772;8.846;2022-11-02T00:21:14;8.10;99.90
254;DHT22;590;48.772;8.846;2022-11-02T00:23:45;8.10;99.90
254;DHT22;590;48.772;8.846;2022-11-02T00:26:13;8.10;99.90
254;DHT22;590;48.772;8.846;2022-11-02T00:28:41;8.10;99.90
254;DHT22;590;48.772;8.846;2022-11-02T00:31:09;8.10;99.90
254;DHT22;590;48.772;8.846;2022-11-02T00:33:37;8.20;99.90
254;DHT22;590;48.772;8.846;2022-11-02T00:36:06;8.20;99.90
254;DHT22;590;48.772;8.846;2022-11-02T00:38:34;8.30;99.90
254;DHT22;590;48.772;8.846;2022-11-02T00:41:04;8.30;99.90
254;DHT22;590;48.772;8.846;2022-11-02T00:43:32;8.30;99.90
254;DHT22;590;48.772;8.846;2022-11-02T00:46:00;8.20;99.90
254;DHT22;590;48.772;8.846;2022-11-02T00:48:28;8.20;99.90
254;DHT22;590;48.772;8.846;2022-11-02T00:50:56;8.10;99.90
254;DHT22;590;48.772;8.846;2022-11-02T00:53:24;8.10;99.90
254;DHT22;590;48.772;8.846;2022-11-02T00:55:52;8.00;99.90
254;DHT22;590;48.772;8.846;2022-11-02T00:58:22;8.00;99.90
254;DHT22;590;48.772;8.846;2022-11-02T01:00:50;8.00;99.90
254;DHT22;590;48.772;8.846;2022-11-02T01:03:18;8.00;99.90
254;DHT22;590;48.772;8.846;2022-11-02T01:05:46;8.00;99.90
254;DHT22;590;48.772;8.846;2022-11-02T01:08:14;8.00;99.90
254;DHT22;590;48.772;8.846;2022-11-02T01:10:42;8.00;99.90
254;DHT22;590;48.772;8.846;2022-11-02T01:13:15;8.00;99.90
254;DHT22;590;48.772;8.846;2022-11-02T01:15:44;8.00;99.90
254;DHT22;590;48.772;8.846;2022-11-02T01:18:12;8.00;99.90
254;DHT22;590;48.772;8.846;2022-11-02T01:20:40;8.00;99.90
254;DHT22;590;48.772;8.846;2022-11-02T01:23:08;8.00;99.90
254;DHT22;590;48.772;8.846;2022-11-02T01:25:36;8.10;99.90
254;DHT22;590;48.772;8.846;2022-11-02T01:28:04;8.10;99.90
254;DHT22;590;48.772;8.846;2022-11-02T01:30:32;8.20;99.90
254;DHT22;590;48.772;8.846;2022-11-02T01:33:04;8.20;99.90
254;DHT22;590;48.772;8.846;2022-11-02T01:35:32;8.20;99.90
254;DHT22;590;48.772;8.846;2022-11-02T01:38:00;8.20;99.90
254;DHT22;590;48.772;8.846;2022-11-02T01:40:34;8.20;99.90
254;DHT22;590;48.772;8.846;2022-11-02T01:43:18;8.30;99.90
254;DHT22;590;48.772;8.846;2022-11-02T01:45:46;8.30;99.90
254;DHT22;590;48.772;8.846;2022-11-02T01:48:26;8.30;99.90
254;DHT22;590;48.772;8.846;2022-11-02T01:50:56;8.30;99.90
254;DHT22;590;48.772;8.846;2022-11-02T01:53:24;8.30;99.90
254;DHT22;590;48.772;8.846;2022-11-02T01:55:52;8.30;99.90
254;DHT22;590;48.772;8.846;2022-11-02T01:58:21;8.30;99.90
254;DHT22;590;48.772;8.846;2022-11-02T02:00:49;8.40;99.90
254;DHT22;590;48.772;8.846;2022-11-02T02:03:18;8.40;99.90
254;DHT22;590;48.772;8.846;2022-11-02T02:05:53;8.40;99.90
254;DHT22;590;48.772;8.846;2022-11-02T02:08:24;8.40;99.90
254;DHT22;590;48.772;8.846;2022-11-02T02:10:55;8.40;99.90
254;DHT22;590;48.772;8.846;2022-11-02T02:13:24;8.50;99.90
254;DHT22;590;48.772;8.846;2022-11-02T02:16:00;8.50;99.90
254;DHT22;590;48.772;8.846;2022-11-02T02:18:36;8.50;99.90
254;DHT22;590;48.772;8.846;2022-11-02T02:21:15;8.50;99.90
254;DHT22;590;48.772;8.846;2022-11-02T02:24:04;8.50;99.90
254;DHT22;590;48.772;8.846;2022-11-02T02:27:01;8.60;99.90
254;DHT22;590;48.772;8.846;2022-11-02T02:29:43;8.60;99.90
254;DHT22;590;48.772;8.846;2022-11-02T02:32:17;8.50;99.90
254;DHT22;590;48.772;8.846;2022-11-02T02:34:51;8.60;99.90
254;DHT22;590;48.772;8.846;2022-11-02T02:37:24;8.60;99.90
254;DHT22;590;48.772;8.846;2022-11-02T02:39:59;8.60;99.90
254;DHT22;590;48.772;8.846;2022-11-02T02:42:31;8.60;99.90
254;DHT22;590;48.772;8.846;2022-11-02T02:45:09;8.60;99.90
254;DHT22;590;48.772;8.846;2022-11-02T02:47:44;8.60;99.90
254;DHT22;590;48.772;8.846;2022-11-02T02:50:17;8.60;99.90
254;DHT22;590;48.772;8.846;2022-11-02T02:52:48;8.60;99.90
254;DHT22;590;48.772;8.846;2022-11-02T02:55:20;8.50;99.90
254;DHT22;590;48.772;8.846;2022-11-02T02:57:50;8.60;99.90
254;DHT22;590;48.772;8.846;2022-11-02T03:00:20;8.50;99.90
254;DHT22;590;48.772;8.846;2022-11-02T03:02:48;8.50;99.90
254;DHT22;590;48.772;8.846;2022-11-02T03:05:30;8.60;99.90
254;DHT22;590;48.772;8.846;2022-11-02T03:08:02;8.60;99.90
254;DHT22;590;48.772;8.846;2022-11-02T03:10:34;8.60;99.90
254;DHT22;590;48.772;8.846;2022-11-02T03:13:19;8.70;99.90
254;DHT22;590;48.772;8.846;2022-11-02T03:15:57;8.70;99.90
254;DHT22;590;48.772;8.846;2022-11-02T03:18:34;8.70;99.90
254;DHT22;590;48.772;8.846;2022-11-02T03:21:13;8.70;99.90
254;DHT22;590;48.772;8.846;2022-11-02T03:23:50;8.80;99.90
254;DHT22;590;48.772;8.846;2022-11-02T03:26:22;8.80;99.90
254;DHT22;590;48.772;8.846;2022-11-02T03:28:58;8.80;99.90
254;DHT22;590;48.772;8.846;2022-11-02T03:31:34;8.80;99.90
254;DHT22;590;48.772;8.846;2022-11-02T03:34:12;8.80;99.90
254;DHT22;590;48.772;8.846;2022-11-02T03:36:47;8.80;99.90
254;DHT22;590;48.772;8.846;2022-11-02T03:39:18;8.80;99.90
254;DHT22;590;48.772;8.846;2022-11-02T03:41:49;8.90;99.90
254;DHT22;590;48.772;8.846;2022-11-02T03:44:20;9.00;99.90
254;DHT22;590;48.772;8.846;2022-11-02T03:46:56;9.00;99.90
254;DHT22;590;48.772;8.846;2022-11-02T03:49:27;9.00;99.90
254;DHT22;590;48.772;8.846;2022-11-02T03:51:59;9.00;99.90
254;DHT22;590;48.772;8.846;2022-11-02T03:54:39;9.00;99.90
254;DHT22;590;48.772;8.846;2022-11-02T03:57:12;9.00;99.90
254;DHT22;590;48.772;8.846;2022-11-02T03:59:45;9.00;99.90
254;DHT22;590;48.772;8.846;2022-11-02T04:02:15;9.00;99.90
254;DHT22;590;48.772;8.846;2022-11-02T04:04:47;9.00;99.90
254;DHT22;590;48.772;8.846;2022-11-02T04:07:19;9.00;99.90
254;DHT22;590;48.772;8.846;2022-11-02T04:09:48;9.00;99.90
254;DHT22;590;48.772;8.846;2022-11-02T04:12:16;9.00;99.90
254;DHT22;590;48.772;8.846;2022-11-02T04:15:02;9.00;99.90
254;DHT22;590;48.772;8.846;2022-11-02T04:17:32;9.00;99.90
254;DHT22;590;48.772;8.846;2022-11-02T04:20:17;9.00;99.90
254;DHT22;590;48.772;8.846;2022-11-02T04:22:45;8.90;99.90
254;DHT22;590;48.772;8.846;2022-11-02T04:25:31;8.90;99.90
254;DHT22;590;48.772;8.846;2022-11-02T04:28:06;8.80;99.90
254;DHT22;590;48.772;8.846;2022-11-02T04:30:34;8.90;99.90
254;DHT22;590;48.772;8.846;2022-11-02T04:33:04;8.90;99.90
254;DHT22;590;48.772;8.846;2022-11-02T04:35:49;8.90;99.90
254;DHT22;590;48.772;8.846;2022-11-02T04:38:17;8.90;99.90
254;DHT22;590;48.772;8.846;2022-11-02T04:41:03;8.90;99.90
254;DHT22;590;48.772;8.846;2022-11-02T04:43:49;8.80;99.90
254;DHT22;590;48.772;8.846;2022-11-02T04:46:17;8.80;99.90
254;DHT22;590;48.772;8.846;2022-11-02T04:48:46;8.80;99.90
254;DHT22;590;48.772;8.846;2022-11-02T04:51:15;8.80;99.90
254;DHT22;590;48.772;8.846;2022-11-02T04:53:43;8.80;99.90
254;DHT22;590;48.772;8.846;2022-11-02T04:56:11;8.80;99.90
254;DHT22;590;48.772;8.846;2022-11-02T04:58:39;8.80;99.90
254;DHT22;590;48.772;8.846;2022-11-02T05:01:09;8.80;99.90
254;DHT22;590;48.772;8.846;2022-11-02T05:03:38;8.80;99.90
254;DHT22;590;48.772;8.846;2022-11-02T05:06:08;8.80;99.90
254;DHT22;590;48.772;8.846;2022-11-02T05:08:37;8.80;99.90
254;DHT22;590;48.772;8.846;2022-11-02T05:11:05;8.70;99.90
254;DHT22;590;48.772;8.846;2022-11-02T05:13:33;8.80;99.90
254;DHT22;590;48.772;8.846;2022-11-02T05:16:02;8.80;99.90
254;DHT22;590;48.772;8.846;2022-11-02T05:18:31;8.70;99.90
254;DHT22;590;48.772;8.846;2022-11-02T05:21:00;8.70;99.90
254;DHT22;590;48.772;8.846;2022-11-02T05:23:29;8.70;99.90
254;DHT22;590;48.772;8.846;2022-11-02T05:25:59;8.80;99.90
254;DHT22;590;48.772;8.846;2022-11-02T05:28:30;8.80;99.90
254;DHT22;590;48.772;8.846;2022-11-02T05:30:59;8.90;99.90
254;DHT22;590;48.772;8.846;2022-11-02T05:33:28;9.00;99.90
254;DHT22;590;48.772;8.846;2022-11-02T05:35:57;9.00;99.90
254;DHT22;590;48.772;8.846;2022-11-02T05:38:27;9.00;99.90
254;DHT22;590;48.772;8.846;2022-11-02T05:40:58;9.00;99.90
254;DHT22;590;48.772;8.846;2022-11-02T05:43:26;9.00;99.90
254;DHT22;590;48.772;8.846;2022-11-02T05:45:55;9.00;99.90
254;DHT22;590;48.772;8.846;2022-11-02T05:48:24;9.10;99.90
254;DHT22;590;48.772;8.846;2022-11-02T05:50:57;9.10;99.90
254;DHT22;590;48.772;8.846;2022-11-02T05:53:26;9.10;99.90
254;DHT22;590;48.772;8.846;2022-11-02T05:55:59;9.20;99.90
254;DHT22;590;48.772;8.846;2022-11-02T05:58:27;9.10;99.90
254;DHT22;590;48.772;8.846;2022-11-02T06:00:57;9.10;99.90
254;DHT22;590;48.772;8.846;2022-11-02T06:03:25;9.10;99.90
254;DHT22;590;48.772;8.846;2022-11-02T06:05:57;9.20;99.90
254;DHT22;590;48.772;8.846;2022-11-02T06:08:25;9.20;99.90
254;DHT22;590;48.772;8.846;2022-11-02T06:10:53;9.20;99.90
254;DHT22;590;48.772;8.846;2022-11-02T06:13:23;9.30;99.90
254;DHT22;590;48.772;8.846;2022-11-02T06:15:51;9.30;99.90
254;DHT22;590;48.772;8.846;2022-11-02T06:18:19;9.30;99.90
254;DHT22;590;48.772;8.846;2022-11-02T06:20:47;9.40;99.90
254;DHT22;590;48.772;8.846;2022-11-02T06:23:15;9.50;99.90
254;DHT22;590;48.772;8.846;2022-11-02T06:25:49;9.50;99.90
254;DHT22;590;48.772;8.846;2022-11-02T06:28:18;9.60;99.90
254;DHT22;590;48.772;8.846;2022-11-02T06:30:47;9.70;99.90
254;DHT22;590;48.772;8.846;2022-11-02T06:33:16;9.80;99.90
254;DHT22;590;48.772;8.846;2022-11-02T06:35:45;9.90;99.90
254;DHT22;590;48.772;8.846;2022-11-02T06:38:14;10.00;99.90
254;DHT22;590;48.772;8.846;2022-11-02T06:40:42;10.10;99.90
254;DHT22;590;48.772;8.846;2022-11-02T06:43:10;10.10;99.90
254;DHT22;590;48.772;8.846;2022-11-02T06:45:43;10.20;99.90
254;DHT22;590;48.772;8.846;2022-11-02T06:48:13;10.30;99.90
254;DHT22;590;48.772;8.846;2022-11-02T06:50:41;10.30;99.90
254;DHT22;590;48.772;8.846;2022-11-02T06:53:09;10.40;99.90
254;DHT22;590;48.772;8.846;2022-11-02T06:55:37;10.50;99.90
254;DHT22;590;48.772;8.846;2022-11-02T06:58:06;10.60;99.90
254;DHT22;590;48.772;8.846;2022-11-02T07:00:34;10.60;99.90
254;DHT22;590;48.772;8.846;2022-11-02T07:03:03;10.70;99.90
254;DHT22;590;48.772;8.846;2022-11-02T07:05:34;10.70;99.90
254;DHT22;590;48.772;8.846;2022-11-02T07:08:02;10.80;99.90
254;DHT22;590;48.772;8.846;2022-11-02T07:10:31;10.80;99.90
254;DHT22;590;48.772;8.846;2022-11-02T07:13:01;10.90;99.90
254;DHT22;590;48.772;8.846;2022-11-02T07:15:29;10.90;99.90
254;DHT22;590;48.772;8.846;2022-11-02T07:17:57;11.00;99.90
254;DHT22;590;48.772;8.846;2022-11-02T07:20:25;11.00;99.90
254;DHT22;590;48.772;8.846;2022-11-02T07:22:56;11.10;99.90
254;DHT22;590;48.772;8.846;2022-11-02T07:25:26;11.20;99.90
254;DHT22;590;48.772;8.846;2022-11-02T07:27:54;11.30;99.90
254;DHT22;590;48.772;8.846;2022-11-02T07:30:22;11.40;99.90
254;DHT22;590;48.772;8.846;2022-11-02T07:32:50;11.40;99.90
254;DHT22;590;48.772;8.846;2022-11-02T07:35:18;11.50;99.90
254;DHT22;590;48.772;8.846;2022-11-02T07:37:55;11.60;99.90
254;DHT22;590;48.772;8.846;2022-11-02T07:40:24;11.70;99.90
254;DHT22;590;48.772;8.846;2022-11-02T07:42:52;11.80;99.90
254;DHT22;590;48.772;8.846;2022-11-02T07:45:21;11.90;99.90
254;DHT22;590;48.772;8.846;2022-11-02T07:47:49;12.10;99.90
254;DHT22;590;48.772;8.846;2022-11-02T07:50:19;12.20;99.90
254;DHT22;590;48.772;8.846;2022-11-02T07:52:49;12.30;99.90
254;DHT22;590;48.772;8.846;2022-11-02T07:55:20;12.40;99.90
254;DHT22;590;48.772;8.846;2022-11-02T07:57:54;12.50;99.90
254;DHT22;590;48.772;8.846;2022-11-02T08:00:23;12.60;99.90
254;DHT22;590;48.772;8.846;2022-11-02T08:02:53;12.70;99.90
254;DHT22;590;48.772;8.846;2022-11-02T08:05:22;12.80;99.90
254;DHT22;590;48.772;8.846;2022-11-02T08:07:56;12.90;99.90
254;DHT22;590;48.772;8.846;2022-11-02T08:10:25;13.00;99.90
254;DHT22;590;48.772;8.846;2022-11-02T08:12:54;13.10;99.90
254;DHT22;590;48.772;8.846;2022-11-02T08:15:23;13.20;99.90
254;DHT22;590;48.772;8.846;2022-11-02T08:17:59;13.30;99.90
254;DHT22;590;48.772;8.846;2022-11-02T08:20:28;13.50;99.90
254;DHT22;590;48.772;8.846;2022-11-02T08:22:56;13.60;99.90
254;DHT22;590;48.772;8.846;2022-11-02T08:25:26;13.70;99.90
254;DHT22;590;48.772;8.846;2022-11-02T08:27:55;13.80;99.90
254;DHT22;590;48.772;8.846;2022-11-02T08:30:24;13.90;99.90
254;DHT22;590;48.772;8.846;2022-11-02T08:32:52;14.00;99.90
254;DHT22;590;48.772;8.846;2022-11-02T08:35:23;14.10;99.90
254;DHT22;590;48.772;8.846;2022-11-02T08:37:54;14.20;99.40
254;DHT22;590;48.772;8.846;2022-11-02T08:40:23;14.30;99.00
254;DHT22;590;48.772;8.846;2022-11-02T08:42:56;14.30;97.90
254;DHT22;590;48.772;8.846;2022-11-02T08:45:24;14.40;96.40
254;DHT22;590;48.772;8.846;2022-11-02T08:47:52;14.40;95.20
254;DHT22;590;48.772;8.846;2022-11-02T08:50:20;14.50;93.00
254;DHT22;590;48.772;8.846;2022-11-02T08:52:48;14.60;91.10
254;DHT22;590;48.772;8.846;2022-11-02T08:55:17;14.60;90.70
254;DHT22;590;48.772;8.846;2022-11-02T08:57:45;14.60;90.10
254;DHT22;590;48.772;8.846;2022-11-02T09:00:16;14.60;90.00
254;DHT22;590;48.772;8.846;2022-11-02T09:02:57;14.60;88.90
254;DHT22;590;48.772;8.846;2022-11-02T09:05:26;14.60;85.90
254;DHT22;590;48.772;8.846;2022-11-02T09:07:55;14.60;84.20
254;DHT22;590;48.772;8.846;2022-11-02T09:10:23;14.60;82.60
254;DHT22;590;48.772;8.846;2022-11-02T09:12:51;14.60;82.10
254;DHT22;590;48.772;8.846;2022-11-02T09:15:21;14.60;80.70
254;DHT22;590;48.772;8.846;2022-11-02T09:17:49;14.60;79.20
254;DHT22;590;48.772;8.846;2022-11-02T09:20:18;14.60;76.50
254;DHT22;590;48.772;8.846;2022-11-02T09:22:46;14.60;74.10
254;DHT22;590;48.772;8.846;2022-11-02T09:25:15;14.60;72.90
254;DHT22;590;48.772;8.846;2022-11-02T09:27:43;14.60;73.00
254;DHT22;590;48.772;8.846;2022-11-02T09:30:12;14.60;73.70
254;DHT22;590;48.772;8.846;2022-11-02T09:32:41;14.70;73.50
254;DHT22;590;48.772;8.846;2022-11-02T09:35:11;14.70;72.10
254;DHT22;590;48.772;8.846;2022-11-02T09:37:39;14.80;71.70
254;DHT22;590;48.772;8.846;2022-11-02T09:40:20;14.80;71.20
254;DHT22;590;48.772;8.846;2022-11-02T09:42:56;14.90;71.20
254;DHT22;590;48.772;8.846;2022-11-02T09:45:25;14.90;67.90
254;DHT22;590;48.772;8.846;2022-11-02T09:48:00;14.90;68.00
254;DHT22;590;48.772;8.846;2022-11-02T09:50:51;15.00;68.60
254;DHT22;590;48.772;8.846;2022-11-02T09:53:32;15.00;69.00
254;DHT22;590;48.772;8.846;2022-11-02T09:56:04;15.10;69.00
254;DHT22;590;48.772;8.846;2022-11-02T09:58:36;15.10;68.20
254;DHT22;590;48.772;8.846;2022-11-02T10:01:15;15.10;67.80
254;DHT22;590;48.772;8.846;2022-11-02T10:04:03;15.20;67.80
254;DHT22;590;48.772;8.846;2022-11-02T10:06:36;15.20;67.60
254;DHT22;590;48.772;8.846;2022-11-02T10:09:09;15.20;67.10
254;DHT22;590;48.772;8.846;2022-11-02T10:11:46;15.20;67.10
254;DHT22;590;48.772;8.846;2022-11-02T10:14:19;15.20;67.50
254;DHT22;590;48.772;8.846;2022-11-02T10:16:56;15.20;67.20
254;DHT22;590;48.772;8.846;2022-11-02T10:19:26;15.20;67.00
254;DHT22;590;48.772;8.846;2022-11-02T10:21:57;15.30;67.30
254;DHT22;590;48.772;8.846;2022-11-02T10:24:30;15.30;67.70
254;DHT22;590;48.772;8.846;2022-11-02T10:27:01;15.30;66.90
254;DHT22;590;48.772;8.846;2022-11-02T10:29:38;15.30;66.70
254;DHT22;590;48.772;8.846;2022-11-02T10:32:09;15.30;65.20
254;DHT22;590;48.772;8.846;2022-11-02T10:34:40;15.30;64.00
254;DHT22;590;48.772;8.846;2022-11-02T10:37:31;15.20;63.70
254;DHT22;590;48.772;8.846;2022-11-02T10:40:11;15.20;64.20
254;DHT22;590;48.772;8.846;2022-11-02T10:42:51;15.20;64.90
254;DHT22;590;48.772;8.846;2022-11-02T10:45:41;15.20;65.40
254;DHT22;590;48.772;8.846;2022-11-02T10:48:20;15.30;64.40
254;DHT22;590;48.772;8.846;2022-11-02T10:50:55;15.40;64.40
254;DHT22;590;48.772;8.846;2022-11-02T10:53:33;15.40;62.40
254;DHT22;590;48.772;8.846;2022-11-02T10:56:11;15.50;62.50
254;DHT22;590;48.772;8.846;2022-11-02T10:58:49;15.50;62.50
254;DHT22;590;48.772;8.846;2022-11-02T11:01:17;15.60;62.30
254;DHT22;590;48.772;8.846;2022-11-02T11:03:55;15.60;61.50
254;DHT22;590;48.772;8.846;2022-11-02T11:06:27;15.70;60.80
254;DHT22;590;48.772;8.846;2022-11-02T11:09:02;15.60;59.10
254;DHT22;590;48.772;8.846;2022-11-02T11:11:33;15.60;55.10
254;DHT22;590;48.772;8.846;2022-11-02T11:14:04;15.60;54.60
254;DHT22;590;48.772;8.846;2022-11-02T11:16:53;15.60;50.00
254;DHT22;590;48.772;8.846;2022-11-02T11:19:28;15.60;51.10
254;DHT22;590;48.772;8.846;2022-11-02T11:22:28;15.70;51.90
254;DHT22;590;48.772;8.846;2022-11-02T11:25:20;15.70;47.70
254;DHT22;590;48.772;8.846;2022-11-02T11:27:55;15.80;47.30
254;DHT22;590;48.772;8.846;2022-11-02T11:30:25;15.80;47.10
254;DHT22;590;48.772;8.846;2022-11-02T11:33:15;15.90;47.00
254;DHT22;590;48.772;8.846;2022-11-02T11:35:47;15.90;46.80
254;DHT22;590;48.772;8.846;2022-11-02T11:38:18;16.00;44.00
254;DHT22;590;48.772;8.846;2022-11-02T11:40:50;16.00;42.90
254;DHT22;590;48.772;8.846;2022-11-02T11:43:21;16.00;41.20
254;DHT22;590;48.772;8.846;2022-11-02T11:45:55;16.00;42.00
254;DHT22;590;48.772;8.846;2022-11-02T11:48:34;16.10;42.50
254;DHT22;590;48.772;8.846;2022-11-02T11:51:05;16.10;41.20
254;DHT22;590;48.772;8.846;2022-11-02T11:54:18;16.10;41.00
254;DHT22;590;48.772;8.846;2022-11-02T11:56:49;16.10;41.30
254;DHT22;590;48.772;8.846;2022-11-02T11:59:22;16.10;39.80
254;DHT22;590;48.772;8.846;2022-11-02T12:01:56;16.10;36.50
254;DHT22;590;48.772;8.846;2022-11-02T12:04:32;15.90;35.20
254;DHT22;590;48.772;8.846;2022-11-02T12:07:24;15.90;33.50
254;DHT22;590;48.772;8.846;2022-11-02T12:10:04;15.80;33.00
254;DHT22;590;48.772;8.846;2022-11-02T12:12:45;15.70;35.00
254;DHT22;590;48.772;8.846;2022-11-02T12:15:28;15.70;34.80
254;DHT22;590;48.772;8.846;2022-11-02T12:18:13;15.70;36.30
254;DHT22;590;48.772;8.846;2022-11-02T12:20:55;15.70;37.30
254;DHT22;590;48.772;8.846;2022-11-02T12:23:37;15.70;39.40
254;DHT22;590;48.772;8.846;2022-11-02T12:26:20;15.70;37.10
254;DHT22;590;48.772;8.846;2022-11-02T12:28:57;15.80;34.70
254;DHT22;590;48.772;8.846;2022-11-02T12:31:34;15.80;33.80
254;DHT22;590;48.772;8.846;2022-11-02T12:34:24;15.90;34.50
254;DHT22;590;48.772;8.846;2022-11-02T12:37:07;15.90;31.80
254;DHT22;590;48.772;8.846;2022-11-02T12:40:11;15.90;31.20
254;DHT22;590;48.772;8.846;2022-11-02T12:42:48;16.00;29.70
254;DHT22;590;48.772;8.846;2022-11-02T12:45:24;16.00;29.10
254;DHT22;590;48.772;8.846;2022-11-02T12:47:56;16.00;29.80
254;DHT22;590;48.772;8.846;2022-11-02T12:50:31;16.00;27.50
254;DHT22;590;48.772;8.846;2022-11-02T12:53:17;16.00;27.50
254;DHT22;590;48.772;8.846;2022-11-02T12:55:51;16.00;28.70
254;DHT22;590;48.772;8.846;2022-11-02T12:58:24;16.00;29.70
254;DHT22;590;48.772;8.846;2022-11-02T13:00:55;16.00;28.00
254;DHT22;590;48.772;8.846;2022-11-02T13:03:33;16.10;29.10
254;DHT22;590;48.772;8.846;2022-11-02T13:06:05;16.00;29.20
254;DHT22;590;48.772;8.846;2022-11-02T13:08:40;16.10;28.70
254;DHT22;590;48.772;8.846;2022-11-02T13:11:14;16.10;27.70
254;DHT22;590;48.772;8.846;2022-11-02T13:13:49;16.00;27.00
254;DHT22;590;48.772;8.846;2022-11-02T13:16:23;15.90;28.10
254;DHT22;590;48.772;8.846;2022-11-02T13:18:54;15.90;28.20
254;DHT22;590;48.772;8.846;2022-11-02T13:21:32;15.90;29.30
254;DHT22;590;48.772;8.846;2022-11-02T13:24:10;15.90;30.00
254;DHT22;590;48.772;8.846;2022-11-02T13:26:40;15.90;30.30
254;DHT22;590;48.772;8.846;2022-11-02T13:29:16;15.90;29.60
254;DHT22;590;48.772;8.846;2022-11-02T13:31:47;15.90;31.00
254;DHT22;590;48.772;8.846;2022-11-02T13:34:19;15.90;36.10
254;DHT22;590;48.772;8.846;2022-11-02T13:36:51;15.90;37.80
254;DHT22;590;48.772;8.846;2022-11-02T13:39:24;15.80;39.30
254;DHT22;590;48.772;8.846;2022-11-02T13:42:25;15.70;39.20
254;DHT22;590;48.772;8.846;2022-11-02T13:45:27;15.70;33.80
254;DHT22;590;48.772;8.846;2022-11-02T13:48:33;15.50;32.70
254;DHT22;590;48.772;8.846;2022-11-02T13:51:05;15.50;39.80
254;DHT22;590;48.772;8.846;2022-11-02T13:53:37;15.40;42.60
254;DHT22;590;48.772;8.846;2022-11-02T13:56:08;15.40;42.60
254;DHT22;590;48.772;8.846;2022-11-02T13:58:46;15.40;42.10
254;DHT22;590;48.772;8.846;2022-11-02T14:01:18;15.30;38.90
254;DHT22;590;48.772;8.846;2022-11-02T14:03:50;15.30;37.50
254;DHT22;590;48.772;8.846;2022-11-02T14:06:29;15.30;37.30
254;DHT22;590;48.772;8.846;2022-11-02T14:09:00;15.20;37.60
254;DHT22;590;48.772;8.846;2022-11-02T14:11:34;15.20;37.10
254;DHT22;590;48.772;8.846;2022-11-02T14:14:18;15.20;36.40
254;DHT22;590;48.772;8.846;2022-11-02T14:17:10;15.20;37.70
254;DHT22;590;48.772;8.846;2022-11-02T14:19:53;15.20;37.50
254;DHT22;590;48.772;8.846;2022-11-02T14:22:22;15.20;38.70
254;DHT22;590;48.772;8.846;2022-11-02T14:27:42;15.10;40.90
254;DHT22;590;48.772;8.846;2022-11-02T14:30:39;15.00;40.20
254;DHT22;590;48.772;8.846;2022-11-02T14:33:45;15.10;38.20
254;DHT22;590;48.772;8.846;2022-11-02T14:36:31;15.00;37.10
254;DHT22;590;48.772;8.846;2022-11-02T14:39:11;15.00;37.40
254;DHT22;590;48.772;8.846;2022-11-02T14:42:11;15.00;37.50
254;DHT22;590;48.772;8.846;2022-11-02T14:44:58;14.90;38.50
254;DHT22;590;48.772;8.846;2022-11-02T14:47:29;14.90;39.70
254;DHT22;590;48.772;8.846;2022-11-02T14:50:05;14.90;39.50
254;DHT22;590;48.772;8.846;2022-11-02T14:52:34;14.90;39.10
254;DHT22;590;48.772;8.846;2022-11-02T14:55:23;14.80;38.40
254;DHT22;590;48.772;8.846;2022-11-02T14:57:54;14.80;38.90
254;DHT22;590;48.772;8.846;2022-11-02T15:00:29;14.70;41.90
254;DHT22;590;48.772;8.846;2022-11-02T15:02:58;14.70;44.90
254;DHT22;590;48.772;8.846;2022-11-02T15:05:31;14.70;47.10
254;DHT22;590;48.772;8.846;2022-11-02T15:08:02;14.60;47.90
254;DHT22;590;48.772;8.846;2022-11-02T15:10:38;14.60;46.80
254;DHT22;590;48.772;8.846;2022-11-02T15:13:33;14.50;48.90
254;DHT22;590;48.772;8.846;2022-11-02T15:16:23;14.50;52.00
254;DHT22;590;48.772;8.846;2022-11-02T15:18:51;14.40;53.30
254;DHT22;590;48.772;8.846;2022-11-02T15:21:23;14.30;55.60
254;DHT22;590;48.772;8.846;2022-11-02T15:24:01;14.30;57.50
254;DHT22;590;48.772;8.846;2022-11-02T15:26:39;14.20;58.40
254;DHT22;590;48.772;8.846;2022-11-02T15:29:15;14.10;58.40
254;DHT22;590;48.772;8.846;2022-11-02T15:31:50;14.10;59.40
254;DHT22;590;48.772;8.846;2022-11-02T15:34:19;14.00;59.20
254;DHT22;590;48.772;8.846;2022-11-02T15:36:50;13.90;59.70
254;DHT22;590;48.772;8.846;2022-11-02T15:39:18;13.90;61.10
254;DHT22;590;48.772;8.846;2022-11-02T15:41:52;13.80;61.70
254;DHT22;590;48.772;8.846;2022-11-02T15:47:58;13.60;63.50
254;DHT22;590;48.772;8.846;2022-11-02T15:50:37;13.50;64.60
254;DHT22;590;48.772;8.846;2022-11-02T15:53:22;13.30;64.40
254;DHT22;590;48.772;8.846;2022-11-02T15:56:04;13.20;64.60
254;DHT22;590;48.772;8.846;2022-11-02T15:58:44;13.00;64.40
254;DHT22;590;48.772;8.846;2022-11-02T16:01:17;12.90;65.10
254;DHT22;590;48.772;8.846;2022-11-02T16:03:46;12.80;66.00
254;DHT22;590;48.772;8.846;2022-11-02T16:06:24;12.70;66.60
254;DHT22;590;48.772;8.846;2022-11-02T16:08:54;12.60;67.90
254;DHT22;590;48.772;8.846;2022-11-02T16:11:23;12.40;68.80
254;DHT22;590;48.772;8.846;2022-11-02T16:13:51;12.30;69.60
254;DHT22;590;48.772;8.846;2022-11-02T16:16:45;12.10;69.90
254;DHT22;590;48.772;8.846;2022-11-02T16:19:16;12.00;72.40
254;DHT22;590;48.772;8.846;2022-11-02T16:21:45;11.70;77.00
254;DHT22;590;48.772;8.846;2022-11-02T16:24:14;11.60;80.10
254;DHT22;590;48.772;8.846;2022-11-02T16:26:44;11.60;81.20
254;DHT22;590;48.772;8.846;2022-11-02T16:29:22;11.60;82.20
254;DHT22;590;48.772;8.846;2022-11-02T16:31:53;11.50;82.60
254;DHT22;590;48.772;8.846;2022-11-02T16:34:24;11.50;82.50
254;DHT22;590;48.772;8.846;2022-11-02T16:36:53;11.40;81.50
254;DHT22;590;48.772;8.846;2022-11-02T16:39:26;11.40;81.30
254;DHT22;590;48.772;8.846;2022-11-02T16:41:58;11.30;81.60
254;DHT22;590;48.772;8.846;2022-11-02T16:44:29;11.20;82.70
254;DHT22;590;48.772;8.846;2022-11-02T16:46:59;11.00;83.80
254;DHT22;590;48.772;8.846;2022-11-02T16:49:28;10.90;85.80
254;DHT22;590;48.772;8.846;2022-11-02T16:51:57;10.80;88.60
254;DHT22;590;48.772;8.846;2022-11-02T16:54:37;10.80;89.50
254;DHT22;590;48.772;8.846;2022-11-02T16:57:13;10.70;89.30
254;DHT22;590;48.772;8.846;2022-11-02T16:59:48;10.60;90.00
254;DHT22;590;48.772;8.846;2022-11-02T17:02:18;10.60;90.60
254;DHT22;590;48.772;8.846;2022-11-02T17:04:49;10.50;90.70
254;DHT22;590;48.772;8.846;2022-11-02T17:07:23;10.50;91.40
254;DHT22;590;48.772;8.846;2022-11-02T17:09:56;10.40;91.50
254;DHT22;590;48.772;8.846;2022-11-02T17:12:30;10.30;90.90
254;DHT22;590;48.772;8.846;2022-11-02T17:15:01;10.30;90.70
254;DHT22;590;48.772;8.846;2022-11-02T17:17:37;10.20;90.60
254;DHT22;590;48.772;8.846;2022-11-02T17:20:16;10.20;90.60
254;DHT22;590;48.772;8.846;2022-11-02T17:22:53;10.10;90.60
254;DHT22;590;48.772;8.846;2022-11-02T17:25:25;10.10;90.90
254;DHT22;590;48.772;8.846;2022-11-02T17:27:54;10.00;90.80
254;DHT22;590;48.772;8.846;2022-11-02T17:30:42;9.90;90.90